Time;durP1;ratioP1;P1;durP2;ratioP2;P2;SDS_P1;SDS_P2;PMS_P1;PMS_P2;Temp;Humidity;BMP_temperature;BMP_pressure;BME280_temperature;BME280_humidity;BME280_pressure;Samples;Min_cycle;Max_cycle;Signal;HPM_P1;HPM_P2
2023/08/08 00:01:27;;;;;;;5.63;1.80;;;;;;;;;;5044289;28;20209;-55
2023/08/08 00:03:53;;;;;;;4.47;1.90;;;;;;;;;;5049465;28;20711;-55
2023/08/08 00:06:19;;;;;;;4.60;1.73;;;;;;;;;;5046181;28;20590;-55
2023/08/08 00:08:45;;;;;;;3.25;1.83;;;;;;;;;;5041113;28;20203;-55
2023/08/08 00:11:10;;;;;;;3.25;1.83;;;;;;;;;;5045279;28;20289;-55
2023/08/08 00:13:37;;;;;;;1.88;1.60;;;;;;;;;;5049661;28;20188;-55
2023/08/08 00:16:03;;;;;;;2.58;1.83;;;;;;;;;;5036916;28;20610;-55
2023/08/08 00:18:29;;;;;;;4.10;2.03;;;;;;;;;;5038008;28;20183;-55
2023/08/08 00:20:55;;;;;;;3.38;1.50;;;;;;;;;;5052980;28;20180;-55
2023/08/08 00:23:20;;;;;;;1.92;1.70;;;;;;;;;;5034954;28;20183;-55
2023/08/08 00:25:50;;;;;;;3.47;1.70;;;;;;;;;;5036581;28;20229;-55
2023/08/08 00:28:17;;;;;;;3.83;1.77;;;;;;;;;;5044341;28;20559;-55
2023/08/08 00:30:43;;;;;;;5.28;1.60;;;;;;;;;;5046531;28;20191;-55
2023/08/08 00:33:09;;;;;;;2.58;1.77;;;;;;;;;;5052508;28;20680;-55
2023/08/08 00:35:35;;;;;;;1.98;1.70;;;;;;;;;;5038352;28;20301;-56
2023/08/08 00:38:00;;;;;;;2.80;1.40;;;;;;;;;;5046575;28;20180;-55
2023/08/08 00:40:26;;;;;;;2.75;1.90;;;;;;;;;;5036111;28;20237;-55
2023/08/08 00:42:52;;;;;;;3.10;1.50;;;;;;;;;;5047363;28;20233;-55
2023/08/08 00:45:18;;;;;;;3.17;1.70;;;;;;;;;;5045078;28;20187;-55
2023/08/08 00:47:45;;;;;;;1.90;1.48;;;;;;;;;;5044142;28;20172;-55
2023/08/08 00:50:11;;;;;;;1.50;1.40;;;;;;;;;;5048491;28;20187;-55
2023/08/08 00:52:38;;;;;;;5.38;1.98;;;;;;;;;;5047664;28;20288;-55
2023/08/08 00:55:04;;;;;;;3.63;1.58;;;;;;;;;;5039711;28;20374;-55
2023/08/08 00:57:30;;;;;;;1.60;1.45;;;;;;;;;;5043315;28;20241;-55
2023/08/08 00:59:56;;;;;;;6.43;1.88;;;;;;;;;;5047352;28;20182;-55
2023/08/08 01:02:22;;;;;;;2.85;1.50;;;;;;;;;;5044755;28;20431;-55
2023/08/08 01:04:48;;;;;;;3.15;1.70;;;;;;;;;;5053127;28;20202;-55
2023/08/08 01:07:30;;;;;;;3.47;2.35;;;;;;;;;;5050586;28;20266;-55
2023/08/08 01:10:06;;;;;;;2.25;1.60;;;;;;;;;;5039670;28;20432;-55
2023/08/08 01:12:32;;;;;;;3.58;1.90;;;;;;;;;;5043611;28;20168;-55
2023/08/08 01:14:59;;;;;;;2.25;1.70;;;;;;;;;;5040521;28;20196;-55
2023/08/08 01:17:25;;;;;;;3.63;1.50;;;;;;;;;;5039356;28;20567;-55
2023/08/08 01:19:51;;;;;;;1.98;1.48;;;;;;;;;;5040247;28;20183;-55
2023/08/08 01:22:25;;;;;;;5.05;1.75;;;;;;;;;;5037294;28;20284;-55
2023/08/08 01:24:51;;;;;;;1.77;1.48;;;;;;;;;;5040261;28;20496;-55
2023/08/08 01:27:17;;;;;;;3.08;1.73;;;;;;;;;;5039224;28;20609;-55
2023/08/08 01:29:43;;;;;;;2.03;1.40;;;;;;;;;;5036603;28;20802;-55
2023/08/08 01:32:10;;;;;;;3.60;1.27;;;;;;;;;;5039087;28;20202;-55
2023/08/08 01:34:36;;;;;;;3.25;1.50;;;;;;;;;;5043015;28;20191;-55
2023/08/08 01:37:22;;;;;;;2.90;1.50;;;;;;;;;;5037904;28;20198;-55
2023/08/08 01:39:49;;;;;;;2.30;1.38;;;;;;;;;;5049323;28;20543;-55
2023/08/08 01:42:15;;;;;;;2.92;1.65;;;;;;;;;;5034360;28;20175;-55
2023/08/08 01:44:42;;;;;;;1.90;1.38;;;;;;;;;;5043299;28;20187;-55
2023/08/08 01:47:08;;;;;;;2.35;1.50;;;;;;;;;;5051593;28;20187;-55
2023/08/08 01:49:34;;;;;;;1.80;1.50;;;;;;;;;;5048416;28;20550;-55
2023/08/08 01:52:00;;;;;;;2.83;1.50;;;;;;;;;;5039702;28;20187;-55
2023/08/08 01:54:26;;;;;;;3.53;1.50;;;;;;;;;;5038261;28;20208;-55
2023/08/08 01:56:52;;;;;;;2.03;1.38;;;;;;;;;;5041390;28;20171;-55
2023/08/08 01:59:18;;;;;;;2.88;1.42;;;;;;;;;;5049301;28;20233;-55
2023/08/08 02:01:44;;;;;;;2.03;1.25;;;;;;;;;;5046970;28;20172;-55
2023/08/08 02:04:10;;;;;;;3.17;1.40;;;;;;;;;;5035013;28;20192;-55
2023/08/08 02:06:36;;;;;;;1.75;1.30;;;;;;;;;;5034375;28;20191;-55
2023/08/08 02:09:02;;;;;;;4.18;1.50;;;;;;;;;;5039408;28;20491;-55
2023/08/08 02:11:28;;;;;;;2.78;1.48;;;;;;;;;;5042414;28;20622;-55
2023/08/08 02:13:54;;;;;;;2.58;1.38;;;;;;;;;;5034463;28;20629;-55
2023/08/08 02:16:20;;;;;;;2.35;1.50;;;;;;;;;;5039016;28;20213;-55
2023/08/08 02:18:45;;;;;;;1.27;1.17;;;;;;;;;;5043183;28;20191;-55
2023/08/08 02:21:11;;;;;;;4.85;1.60;;;;;;;;;;5049178;28;20187;-55
2023/08/08 02:23:37;;;;;;;3.25;2.00;;;;;;;;;;5046961;28;20511;-55
2023/08/08 02:26:04;;;;;;;2.83;1.20;;;;;;;;;;5040651;28;21465;-55
2023/08/08 02:28:30;;;;;;;3.88;1.40;;;;;;;;;;5047047;28;20304;-55
2023/08/08 02:30:56;;;;;;;2.08;1.40;;;;;;;;;;5047744;28;20540;-55
2023/08/08 02:33:22;;;;;;;1.70;1.10;;;;;;;;;;5034230;28;20180;-55
2023/08/08 02:35:47;;;;;;;2.85;1.40;;;;;;;;;;5042667;28;20206;-55
2023/08/08 02:38:13;;;;;;;5.63;1.58;;;;;;;;;;5052168;28;20554;-55
2023/08/08 02:40:39;;;;;;;2.55;1.50;;;;;;;;;;5052348;28;20185;-55
2023/08/08 02:43:05;;;;;;;2.20;1.38;;;;;;;;;;5053333;28;20417;-55
2023/08/08 02:45:31;;;;;;;1.80;1.27;;;;;;;;;;5046369;28;20260;-55
2023/08/08 02:48:00;;;;;;;3.85;1.45;;;;;;;;;;5048303;28;20544;-55
2023/08/08 02:50:26;;;;;;;4.75;1.73;;;;;;;;;;5035923;28;20186;-55
2023/08/08 02:52:52;;;;;;;2.25;1.65;;;;;;;;;;5041365;28;20184;-55
2023/08/08 02:55:18;;;;;;;1.40;1.30;;;;;;;;;;5050697;28;20210;-55
2023/08/08 02:57:44;;;;;;;2.83;1.08;;;;;;;;;;5041406;28;20234;-55
2023/08/08 03:00:11;;;;;;;1.58;1.30;;;;;;;;;;5045753;28;20208;-55
2023/08/08 03:02:37;;;;;;;1.52;1.42;;;;;;;;;;5051526;28;20187;-55
2023/08/08 03:05:04;;;;;;;3.67;1.65;;;;;;;;;;5039735;28;20188;-55
2023/08/08 03:07:30;;;;;;;2.42;1.50;;;;;;;;;;5039379;28;20180;-55
2023/08/08 03:09:56;;;;;;;2.67;1.50;;;;;;;;;;5049976;28;20266;-55
2023/08/08 03:12:22;;;;;;;2.38;1.45;;;;;;;;;;5048499;28;20184;-55
2023/08/08 03:14:47;;;;;;;3.15;1.65;;;;;;;;;;5040437;28;20260;-55
2023/08/08 03:17:13;;;;;;;1.60;1.20;;;;;;;;;;5050351;28;20258;-55
2023/08/08 03:19:39;;;;;;;6.25;1.85;;;;;;;;;;5048644;28;20244;-55
2023/08/08 03:22:05;;;;;;;6.82;1.73;;;;;;;;;;5042747;28;20188;-55
2023/08/08 03:24:31;;;;;;;2.75;1.52;;;;;;;;;;5037375;28;20421;-55
2023/08/08 03:26:57;;;;;;;4.05;1.75;;;;;;;;;;5041121;28;20190;-55
2023/08/08 03:29:23;;;;;;;2.53;1.65;;;;;;;;;;5045764;28;20217;-56
2023/08/08 03:31:49;;;;;;;4.32;1.60;;;;;;;;;;5037078;28;20188;-55
2023/08/08 03:34:15;;;;;;;3.90;1.80;;;;;;;;;;5037597;28;20179;-55
2023/08/08 03:36:41;;;;;;;3.08;1.55;;;;;;;;;;5041315;28;20175;-55
2023/08/08 03:39:08;;;;;;;5.28;1.95;;;;;;;;;;5051065;28;20186;-55
2023/08/08 03:41:33;;;;;;;4.28;2.08;;;;;;;;;;5054467;28;20179;-55
2023/08/08 03:43:59;;;;;;;6.10;2.42;;;;;;;;;;5051689;28;20191;-55
2023/08/08 03:46:25;;;;;;;4.75;2.30;;;;;;;;;;5051578;28;20183;-55
2023/08/08 03:48:51;;;;;;;6.40;2.15;;;;;;;;;;5047285;28;20187;-55
2023/08/08 03:51:17;;;;;;;7.43;1.98;;;;;;;;;;5048060;28;20202;-55
2023/08/08 03:53:43;;;;;;;3.35;2.00;;;;;;;;;;5050796;28;20211;-55
2023/08/08 03:56:09;;;;;;;6.60;2.33;;;;;;;;;;5035756;28;20207;-55
2023/08/08 03:58:35;;;;;;;6.82;2.22;;;;;;;;;;5040957;28;20547;-54
2023/08/08 04:01:01;;;;;;;3.50;1.83;;;;;;;;;;5036921;28;20246;-54
2023/08/08 04:03:27;;;;;;;4.25;1.92;;;;;;;;;;5043492;28;20241;-54
2023/08/08 04:05:53;;;;;;;6.18;2.20;;;;;;;;;;5043717;28;20201;-54
2023/08/08 04:08:19;;;;;;;3.22;2.00;;;;;;;;;;5046210;28;20241;-54
2023/08/08 04:10:49;;;;;;;3.83;1.70;;;;;;;;;;5037691;28;20489;-55
2023/08/08 04:13:15;;;;;;;6.95;1.77;;;;;;;;;;5041988;28;20236;-54
2023/08/08 04:15:41;;;;;;;4.15;1.88;;;;;;;;;;5053980;28;20215;-54
2023/08/08 04:18:07;;;;;;;4.68;2.03;;;;;;;;;;5044464;28;20222;-54
2023/08/08 04:20:34;;;;;;;6.63;1.95;;;;;;;;;;5047499;28;20175;-55
2023/08/08 04:23:00;;;;;;;5.65;2.25;;;;;;;;;;5054566;28;20190;-54
2023/08/08 04:25:26;;;;;;;3.03;1.67;;;;;;;;;;5055657;28;20182;-54
2023/08/08 04:27:52;;;;;;;3.30;1.52;;;;;;;;;;5045226;28;20187;-54
2023/08/08 04:30:18;;;;;;;4.07;1.92;;;;;;;;;;5040951;28;20187;-54
2023/08/08 04:32:44;;;;;;;3.42;1.60;;;;;;;;;;5041064;28;20191;-54
2023/08/08 04:35:10;;;;;;;3.05;1.70;;;;;;;;;;5046691;28;20290;-54
2023/08/08 04:37:36;;;;;;;3.03;1.70;;;;;;;;;;5036960;28;20298;-54
2023/08/08 04:40:03;;;;;;;6.30;2.03;;;;;;;;;;5041138;28;20246;-54
2023/08/08 04:42:29;;;;;;;4.47;1.98;;;;;;;;;;5035125;28;20363;-54
2023/08/08 04:44:55;;;;;;;2.17;1.75;;;;;;;;;;5053500;28;20269;-54
2023/08/08 04:47:21;;;;;;;2.08;1.70;;;;;;;;;;5044315;28;20191;-55
2023/08/08 04:49:47;;;;;;;4.80;2.00;;;;;;;;;;5049582;28;20529;-54
2023/08/08 04:52:13;;;;;;;5.00;1.77;;;;;;;;;;5036291;28;20519;-55
2023/08/08 04:54:39;;;;;;;3.10;1.65;;;;;;;;;;5053984;28;20497;-55
2023/08/08 04:57:05;;;;;;;3.53;2.05;;;;;;;;;;5054924;28;20569;-55
2023/08/08 04:59:31;;;;;;;2.42;1.70;;;;;;;;;;5049061;28;20250;-55
2023/08/08 05:01:56;;;;;;;5.07;1.90;;;;;;;;;;5045581;28;20179;-55
2023/08/08 05:04:22;;;;;;;6.43;1.90;;;;;;;;;;5046457;28;20196;-54
2023/08/08 05:06:48;;;;;;;5.32;1.88;;;;;;;;;;5043095;28;20185;-54
2023/08/08 05:09:15;;;;;;;8.23;2.03;;;;;;;;;;5042226;28;20271;-54
2023/08/08 05:11:41;;;;;;;4.97;1.98;;;;;;;;;;5044590;28;20171;-54
2023/08/08 05:14:07;;;;;;;3.80;1.73;;;;;;;;;;5042671;28;20180;-54
2023/08/08 05:16:33;;;;;;;2.63;1.70;;;;;;;;;;5049856;28;20471;-54
2023/08/08 05:18:59;;;;;;;2.72;1.63;;;;;;;;;;5049816;28;20180;-54
2023/08/08 05:21:25;;;;;;;3.17;1.77;;;;;;;;;;5036181;28;20195;-54
2023/08/08 05:23:51;;;;;;;4.15;1.98;;;;;;;;;;5050194;28;20233;-53
2023/08/08 05:26:17;;;;;;;3.95;1.50;;;;;;;;;;5051883;28;20244;-54
2023/08/08 05:28:42;;;;;;;2.05;1.52;;;;;;;;;;5042246;28;20501;-54
2023/08/08 05:31:10;;;;;;;2.58;1.65;;;;;;;;;;5034948;28;20191;-54
2023/08/08 05:33:36;;;;;;;2.25;1.35;;;;;;;;;;5034746;28;20183;-54
2023/08/08 05:36:02;;;;;;;3.40;1.90;;;;;;;;;;5035357;28;20195;-54
2023/08/08 05:38:27;;;;;;;5.13;1.70;;;;;;;;;;5036459;28;20248;-54
2023/08/08 05:40:53;;;;;;;6.55;1.88;;;;;;;;;;5047291;28;20538;-54
2023/08/08 05:43:21;;;;;;;3.17;1.73;;;;;;;;;;5053329;28;20183;-54
2023/08/08 05:45:47;;;;;;;4.68;2.10;;;;;;;;;;5051212;28;20257;-54
2023/08/08 05:48:13;;;;;;;8.80;2.10;;;;;;;;;;5053611;28;20558;-54
2023/08/08 05:50:39;;;;;;;4.88;1.50;;;;;;;;;;5050409;28;20191;-54
2023/08/08 05:53:05;;;;;;;4.75;1.90;;;;;;;;;;5045712;28;20550;-53
2023/08/08 05:55:31;;;;;;;2.40;2.20;;;;;;;;;;5046991;28;20605;-53
2023/08/08 05:57:57;;;;;;;4.50;3.08;;;;;;;;;;5044147;28;20183;-53
2023/08/08 06:00:23;;;;;;;7.70;4.22;;;;;;;;;;5042586;28;20301;-53
2023/08/08 06:02:49;;;;;;;4.97;3.28;;;;;;;;;;5036272;28;20452;-53
2023/08/08 06:05:16;;;;;;;3.67;2.80;;;;;;;;;;5049875;28;20274;-50
2023/08/08 06:07:42;;;;;;;4.18;2.55;;;;;;;;;;5036106;28;20546;-49
2023/08/08 06:10:08;;;;;;;5.00;2.45;;;;;;;;;;5035784;28;20187;-50
2023/08/08 06:12:34;;;;;;;7.45;2.50;;;;;;;;;;5034742;28;20570;-50
2023/08/08 06:15:00;;;;;;;5.18;2.53;;;;;;;;;;5043247;28;20258;-49
2023/08/08 06:17:26;;;;;;;4.05;2.10;;;;;;;;;;5034610;28;20211;-49
2023/08/08 06:19:54;;;;;;;6.03;2.17;;;;;;;;;;5042861;28;20229;-48
2023/08/08 06:22:20;;;;;;;4.40;2.08;;;;;;;;;;5036512;28;20294;-58
2023/08/08 06:24:46;;;;;;;5.03;2.58;;;;;;;;;;5045270;28;20230;-57
2023/08/08 06:27:13;;;;;;;5.30;2.40;;;;;;;;;;5042911;28;20207;-57
2023/08/08 06:29:39;;;;;;;6.15;2.20;;;;;;;;;;5048665;28;20175;-57
2023/08/08 06:32:05;;;;;;;6.95;2.50;;;;;;;;;;5039425;28;20190;-57
2023/08/08 06:34:31;;;;;;;9.00;2.55;;;;;;;;;;5049438;28;20175;-57
2023/08/08 06:36:57;;;;;;;4.20;2.60;;;;;;;;;;5041948;28;20183;-58
2023/08/08 06:39:23;;;;;;;2.72;2.10;;;;;;;;;;5039678;28;20232;-57
2023/08/08 06:41:49;;;;;;;3.10;2.20;;;;;;;;;;5045942;28;20194;-57
2023/08/08 06:44:15;;;;;;;2.35;2.10;;;;;;;;;;5045434;28;20183;-58
2023/08/08 06:46:41;;;;;;;4.57;2.15;;;;;;;;;;5056006;28;20190;-57
2023/08/08 06:49:08;;;;;;;3.67;2.20;;;;;;;;;;5048808;28;20214;-57
2023/08/08 06:51:35;;;;;;;4.20;2.03;;;;;;;;;;5048878;28;20194;-57
2023/08/08 06:54:00;;;;;;;2.28;2.08;;;;;;;;;;5054793;28;20198;-58
2023/08/08 06:56:26;;;;;;;3.70;2.15;;;;;;;;;;5037594;28;20579;-57
2023/08/08 06:58:53;;;;;;;4.40;2.08;;;;;;;;;;5048186;28;20187;-58
2023/08/08 07:01:19;;;;;;;3.72;1.92;;;;;;;;;;5045739;28;20186;-58
2023/08/08 07:03:46;;;;;;;6.07;2.15;;;;;;;;;;5045065;28;20535;-57
2023/08/08 07:06:12;;;;;;;3.25;2.20;;;;;;;;;;5038082;28;20289;-58
2023/08/08 07:08:41;;;;;;;3.75;2.10;;;;;;;;;;5038539;28;20264;-57
2023/08/08 07:11:07;;;;;;;2.70;1.90;;;;;;;;;;5035518;28;20447;-57
2023/08/08 07:13:33;;;;;;;2.25;1.80;;;;;;;;;;5044229;28;20351;-57
2023/08/08 07:15:59;;;;;;;6.95;1.98;;;;;;;;;;5042722;28;20324;-57
2023/08/08 07:18:25;;;;;;;2.63;2.10;;;;;;;;;;5045510;28;20184;-57
2023/08/08 07:20:51;;;;;;;10.65;2.00;;;;;;;;;;5046128;28;20262;-57
2023/08/08 07:23:17;;;;;;;4.30;2.20;;;;;;;;;;5052089;28;20547;-57
2023/08/08 07:25:43;;;;;;;3.38;2.08;;;;;;;;;;5036845;28;20582;-57
2023/08/08 07:28:09;;;;;;;4.18;2.10;;;;;;;;;;5046556;28;20184;-57
2023/08/08 07:30:35;;;;;;;5.07;1.90;;;;;;;;;;5052144;28;20572;-57
2023/08/08 07:33:02;;;;;;;3.13;2.25;;;;;;;;;;5052489;28;20183;-57
2023/08/08 07:35:28;;;;;;;2.92;1.52;;;;;;;;;;5046402;28;20202;-57
2023/08/08 07:37:53;;;;;;;2.38;1.70;;;;;;;;;;5046810;28;20482;-57
2023/08/08 07:40:20;;;;;;;4.43;2.60;;;;;;;;;;5047306;28;20184;-57
2023/08/08 07:42:47;;;;;;;3.88;2.03;;;;;;;;;;5043833;28;20237;-57
2023/08/08 07:45:13;;;;;;;3.22;2.05;;;;;;;;;;5052700;28;20179;-57
2023/08/08 07:47:39;;;;;;;3.20;2.15;;;;;;;;;;5041982;28;20222;-57
2023/08/08 07:50:08;;;;;;;4.00;1.85;;;;;;;;;;5048804;28;20586;-47
2023/08/08 07:52:34;;;;;;;3.55;1.80;;;;;;;;;;5047530;28;20175;-48
2023/08/08 07:54:59;;;;;;;5.32;2.03;;;;;;;;;;5045206;28;20219;-48
2023/08/08 07:57:27;;;;;;;4.28;1.88;;;;;;;;;;5056540;28;20179;-49
2023/08/08 07:59:52;;;;;;;5.22;2.00;;;;;;;;;;5055574;28;20183;-46
2023/08/08 08:02:18;;;;;;;4.57;1.90;;;;;;;;;;5036351;28;20190;-49
2023/08/08 08:04:44;;;;;;;5.63;2.53;;;;;;;;;;5049770;28;20183;-50
2023/08/08 08:07:10;;;;;;;3.40;2.33;;;;;;;;;;5041103;28;20184;-52
2023/08/08 08:09:36;;;;;;;6.03;1.98;;;;;;;;;;5054249;28;20199;-52
2023/08/08 08:12:02;;;;;;;6.13;1.90;;;;;;;;;;5045952;28;20179;-52
2023/08/08 08:14:28;;;;;;;5.55;2.42;;;;;;;;;;5043272;28;20262;-52
2023/08/08 08:16:54;;;;;;;6.63;2.15;;;;;;;;;;5044841;28;20214;-51
2023/08/08 08:19:20;;;;;;;3.40;1.80;;;;;;;;;;5050281;28;20179;-51
2023/08/08 08:21:46;;;;;;;3.20;1.48;;;;;;;;;;5054426;28;20281;-51
2023/08/08 08:24:12;;;;;;;3.38;1.70;;;;;;;;;;5047017;28;20258;-51
2023/08/08 08:26:38;;;;;;;6.25;1.73;;;;;;;;;;5036540;28;20234;-51
2023/08/08 08:29:04;;;;;;;2.38;1.67;;;;;;;;;;5048205;28;20206;-51
2023/08/08 08:31:30;;;;;;;4.47;1.48;;;;;;;;;;5049740;28;20529;-51
2023/08/08 08:33:56;;;;;;;2.50;1.73;;;;;;;;;;5039249;28;20262;-51
2023/08/08 08:36:22;;;;;;;4.45;1.58;;;;;;;;;;5053873;28;20207;-51
2023/08/08 08:38:48;;;;;;;3.38;1.80;;;;;;;;;;5049872;28;20180;-51
2023/08/08 08:41:16;;;;;;;2.85;1.60;;;;;;;;;;5044798;28;20590;-51
2023/08/08 08:43:42;;;;;;;2.05;1.52;;;;;;;;;;5054856;28;20184;-51
2023/08/08 08:46:09;;;;;;;2.53;1.48;;;;;;;;;;5042253;28;20237;-51
2023/08/08 08:48:35;;;;;;;3.00;1.98;;;;;;;;;;5042152;28;20464;-51
2023/08/08 08:51:02;;;;;;;1.55;1.35;;;;;;;;;;5034068;28;20187;-51
2023/08/08 08:53:28;;;;;;;2.90;1.55;;;;;;;;;;5047549;28;20193;-51
2023/08/08 08:55:56;;;;;;;3.00;1.40;;;;;;;;;;5054284;28;20297;-51
2023/08/08 08:58:22;;;;;;;1.90;1.30;;;;;;;;;;5043761;28;20176;-51
2023/08/08 09:00:48;;;;;;;1.85;1.38;;;;;;;;;;5052488;28;20179;-51
2023/08/08 09:03:15;;;;;;;2.55;1.23;;;;;;;;;;5042000;28;20517;-51
2023/08/08 09:05:41;;;;;;;4.22;1.40;;;;;;;;;;5038991;28;20168;-51
2023/08/08 09:08:08;;;;;;;2.45;1.55;;;;;;;;;;5037162;28;20202;-51
2023/08/08 09:10:35;;;;;;;1.25;1.17;;;;;;;;;;5036032;28;20190;-51
2023/08/08 09:13:01;;;;;;;2.50;1.40;;;;;;;;;;5036182;28;20294;-51
2023/08/08 09:15:33;;;;;;;2.10;1.33;;;;;;;;;;5039699;28;20246;-51
2023/08/08 09:18:00;;;;;;;1.92;1.40;;;;;;;;;;5035970;28;20500;-51
2023/08/08 09:20:30;;;;;;;2.03;1.27;;;;;;;;;;5050717;28;20570;-51
2023/08/08 09:22:56;;;;;;;3.35;1.20;;;;;;;;;;5034563;28;20270;-51
2023/08/08 09:25:23;;;;;;;2.63;1.45;;;;;;;;;;5035178;28;20176;-51
2023/08/08 09:27:49;;;;;;;1.80;1.30;;;;;;;;;;5038232;28;20183;-51
2023/08/08 09:30:15;;;;;;;2.28;1.33;;;;;;;;;;5046855;28;20211;-51
2023/08/08 09:32:44;;;;;;;1.60;1.30;;;;;;;;;;5044088;28;20186;-51
2023/08/08 09:35:10;;;;;;;3.17;1.40;;;;;;;;;;5046752;28;20210;-51
2023/08/08 09:37:37;;;;;;;1.40;1.30;;;;;;;;;;5046607;28;20214;-51
2023/08/08 09:40:05;;;;;;;1.80;1.30;;;;;;;;;;5047012;28;20186;-51
2023/08/08 09:42:31;;;;;;;1.42;1.33;;;;;;;;;;5043561;28;20216;-51
2023/08/08 09:44:58;;;;;;;2.45;1.38;;;;;;;;;;5041368;28;20543;-51
2023/08/08 09:47:24;;;;;;;3.15;1.55;;;;;;;;;;5044967;28;20195;-51
2023/08/08 09:49:51;;;;;;;14.32;1.85;;;;;;;;;;5053106;28;20265;-55
2023/08/08 09:52:17;;;;;;;6.20;1.42;;;;;;;;;;5042323;28;20210;-51
2023/08/08 09:54:43;;;;;;;4.18;1.38;;;;;;;;;;5046132;28;20179;-51
2023/08/08 09:57:09;;;;;;;6.30;1.83;;;;;;;;;;5047963;28;20206;-51
2023/08/08 09:59:35;;;;;;;4.00;1.40;;;;;;;;;;5042267;28;20179;-51
2023/08/08 10:02:02;;;;;;;1.38;1.27;;;;;;;;;;5044036;28;20179;-51
2023/08/08 10:04:27;;;;;;;4.28;1.40;;;;;;;;;;5050687;28;20196;-51
2023/08/08 10:06:53;;;;;;;5.20;1.88;;;;;;;;;;5037597;28;20224;-51
2023/08/08 10:09:20;;;;;;;6.63;1.30;;;;;;;;;;5049557;28;20195;-51
2023/08/08 10:11:47;;;;;;;1.75;1.30;;;;;;;;;;5040009;28;20271;-51
2023/08/08 10:14:15;;;;;;;2.45;1.27;;;;;;;;;;5038085;28;20192;-51
2023/08/08 10:16:44;;;;;;;2.13;1.10;;;;;;;;;;5040849;28;20575;-51
2023/08/08 10:19:10;;;;;;;4.22;1.35;;;;;;;;;;5048486;28;20171;-51
2023/08/08 10:21:37;;;;;;;2.15;1.15;;;;;;;;;;5040636;28;20223;-51
2023/08/08 10:24:07;;;;;;;2.90;1.30;;;;;;;;;;5036404;28;20179;-51
2023/08/08 10:26:33;;;;;;;2.67;1.15;;;;;;;;;;5045960;28;20175;-51
2023/08/08 10:28:59;;;;;;;2.63;1.20;;;;;;;;;;5046586;28;20202;-51
2023/08/08 10:31:25;;;;;;;2.00;1.30;;;;;;;;;;5042400;28;20261;-51
2023/08/08 10:34:01;;;;;;;1.55;1.20;;;;;;;;;;5050220;28;20186;-51
2023/08/08 10:36:42;;;;;;;2.33;1.60;;;;;;;;;;5036343;28;20207;-51
2023/08/08 10:39:11;;;;;;;1.88;1.30;;;;;;;;;;5034734;28;20254;-51
2023/08/08 10:41:44;;;;;;;1.42;1.10;;;;;;;;;;5040969;28;20172;-52
2023/08/08 10:44:10;;;;;;;1.60;1.20;;;;;;;;;;5042485;28;20658;-51
2023/08/08 10:46:40;;;;;;;1.83;1.00;;;;;;;;;;5036357;28;20262;-51
2023/08/08 10:49:06;;;;;;;2.35;1.40;;;;;;;;;;5039004;28;20179;-51
2023/08/08 10:51:39;;;;;;;1.25;1.02;;;;;;;;;;5044152;28;20313;-51
2023/08/08 10:54:06;;;;;;;3.15;1.45;;;;;;;;;;5042366;28;20187;-51
2023/08/08 10:56:32;;;;;;;1.48;1.35;;;;;;;;;;5050151;28;20219;-51
2023/08/08 10:58:58;;;;;;;1.77;0.90;;;;;;;;;;5039791;28;20180;-51
2023/08/08 11:01:27;;;;;;;3.20;1.30;;;;;;;;;;5051933;28;20191;-51
2023/08/08 11:03:53;;;;;;;1.48;1.23;;;;;;;;;;5044945;28;20187;-51
2023/08/08 11:06:19;;;;;;;1.75;1.35;;;;;;;;;;5034097;28;20175;-51
2023/08/08 11:08:45;;;;;;;2.30;1.13;;;;;;;;;;5033237;28;20195;-51
2023/08/08 11:11:12;;;;;;;2.13;1.30;;;;;;;;;;5041425;28;20223;-51
2023/08/08 11:13:38;;;;;;;1.77;1.08;;;;;;;;;;5033281;28;20199;-51
2023/08/08 11:16:04;;;;;;;3.13;1.50;;;;;;;;;;5034400;28;20242;-51
2023/08/08 11:18:30;;;;;;;1.15;1.02;;;;;;;;;;5034170;28;20461;-51
2023/08/08 11:20:56;;;;;;;2.33;1.20;;;;;;;;;;5039815;28;20184;-51
2023/08/08 11:23:22;;;;;;;1.88;1.20;;;;;;;;;;5032754;28;20214;-52
2023/08/08 11:25:49;;;;;;;1.40;1.20;;;;;;;;;;5041956;28;20192;-51
2023/08/08 11:28:15;;;;;;;1.40;1.17;;;;;;;;;;5036602;28;20184;-51
2023/08/08 11:30:45;;;;;;;1.52;1.02;;;;;;;;;;5047530;28;20179;-51
2023/08/08 11:33:15;;;;;;;1.23;1.10;;;;;;;;;;5055200;28;20171;-51
2023/08/08 11:35:45;;;;;;;1.05;0.93;;;;;;;;;;5042773;28;20254;-51
2023/08/08 11:38:11;;;;;;;1.48;1.20;;;;;;;;;;5053058;28;20184;-51
2023/08/08 11:40:37;;;;;;;1.65;1.10;;;;;;;;;;5053870;28;20240;-50
2023/08/08 11:43:03;;;;;;;3.67;1.10;;;;;;;;;;5053016;28;20172;-50
2023/08/08 11:45:29;;;;;;;2.03;1.40;;;;;;;;;;5045872;28;20277;-51
2023/08/08 11:47:56;;;;;;;3.40;1.08;;;;;;;;;;5042114;28;20183;-50
2023/08/08 11:50:23;;;;;;;1.83;1.10;;;;;;;;;;5054644;28;20183;-51
2023/08/08 11:52:51;;;;;;;1.33;1.20;;;;;;;;;;5047907;28;20187;-51
2023/08/08 11:55:22;;;;;;;1.75;1.10;;;;;;;;;;5054158;28;20618;-51
2023/08/08 11:57:48;;;;;;;1.88;1.02;;;;;;;;;;5053479;28;20210;-51
2023/08/08 12:00:14;;;;;;;2.28;1.10;;;;;;;;;;5055740;28;20695;-51
2023/08/08 12:02:40;;;;;;;3.72;1.23;;;;;;;;;;5037796;28;20309;-51
2023/08/08 12:05:07;;;;;;;3.10;1.30;;;;;;;;;;5045950;28;20201;-51
2023/08/08 12:07:36;;;;;;;2.75;1.00;;;;;;;;;;5033847;28;20179;-51
2023/08/08 12:10:04;;;;;;;2.53;1.15;;;;;;;;;;5053859;28;20175;-51
2023/08/08 12:12:33;;;;;;;0.80;0.77;;;;;;;;;;5049252;28;20215;-52
2023/08/08 12:14:59;;;;;;;1.23;1.13;;;;;;;;;;5046793;28;20203;-51
2023/08/08 12:17:26;;;;;;;3.45;1.08;;;;;;;;;;5046321;28;20462;-51
2023/08/08 12:19:52;;;;;;;2.47;0.90;;;;;;;;;;5050340;28;20180;-51
2023/08/08 12:22:18;;;;;;;3.83;1.20;;;;;;;;;;5037974;28;20237;-51
2023/08/08 12:24:44;;;;;;;1.70;1.25;;;;;;;;;;5044467;28;20251;-51
2023/08/08 12:27:10;;;;;;;1.40;1.13;;;;;;;;;;5044933;28;20559;-51
2023/08/08 12:29:36;;;;;;;1.50;1.15;;;;;;;;;;5044936;28;20179;-51
2023/08/08 12:32:02;;;;;;;1.52;1.33;;;;;;;;;;5040972;28;20168;-51
2023/08/08 12:34:28;;;;;;;1.30;0.95;;;;;;;;;;5040075;28;20195;-51
2023/08/08 12:36:54;;;;;;;2.53;1.20;;;;;;;;;;5036891;28;20203;-51
2023/08/08 12:39:20;;;;;;;4.43;1.40;;;;;;;;;;5038145;28;20187;-51
2023/08/08 12:41:46;;;;;;;1.52;1.05;;;;;;;;;;5035749;28;20179;-51
2023/08/08 12:44:12;;;;;;;1.42;1.13;;;;;;;;;;5042701;28;20180;-51
2023/08/08 12:46:38;;;;;;;1.85;1.20;;;;;;;;;;5050684;28;20555;-51
2023/08/08 12:49:04;;;;;;;1.40;1.20;;;;;;;;;;5045536;28;20645;-51
2023/08/08 12:51:30;;;;;;;2.05;1.10;;;;;;;;;;5054032;28;20262;-51
2023/08/08 12:53:56;;;;;;;1.98;1.10;;;;;;;;;;5049205;28;20190;-51
2023/08/08 12:56:22;;;;;;;1.80;1.17;;;;;;;;;;5037445;28;20230;-51
2023/08/08 12:58:47;;;;;;;2.15;1.00;;;;;;;;;;5042173;28;20218;-51
2023/08/08 13:01:13;;;;;;;1.23;1.05;;;;;;;;;;5051689;28;20232;-50
2023/08/08 13:03:39;;;;;;;1.83;0.90;;;;;;;;;;5035792;28;20188;-50
2023/08/08 13:06:05;;;;;;;1.23;1.00;;;;;;;;;;5035510;28;20191;-51
2023/08/08 13:08:32;;;;;;;3.55;1.52;;;;;;;;;;5034624;28;20183;-51
2023/08/08 13:10:58;;;;;;;1.10;1.00;;;;;;;;;;5043038;28;20206;-51
2023/08/08 13:13:26;;;;;;;1.33;1.08;;;;;;;;;;5045949;28;20559;-50
2023/08/08 13:15:52;;;;;;;1.75;1.00;;;;;;;;;;5035423;28;20207;-51
2023/08/08 13:18:18;;;;;;;2.42;1.20;;;;;;;;;;5042805;28;20273;-50
2023/08/08 13:20:44;;;;;;;1.00;0.75;;;;;;;;;;5045631;28;20195;-51
2023/08/08 13:23:10;;;;;;;3.35;1.25;;;;;;;;;;5035127;28;20184;-51
2023/08/08 13:25:36;;;;;;;1.42;0.90;;;;;;;;;;5035574;28;20183;-51
2023/08/08 13:28:03;;;;;;;1.80;0.90;;;;;;;;;;5035319;28;20172;-51
2023/08/08 13:30:28;;;;;;;1.45;1.13;;;;;;;;;;5044107;28;20570;-50
2023/08/08 13:32:54;;;;;;;1.20;0.93;;;;;;;;;;5050292;28;20217;-51
2023/08/08 13:35:20;;;;;;;1.05;0.80;;;;;;;;;;5039758;28;20317;-51
2023/08/08 13:37:50;;;;;;;1.25;1.00;;;;;;;;;;5035058;28;20180;-50
2023/08/08 13:40:17;;;;;;;1.38;1.13;;;;;;;;;;5047056;28;20199;-51
2023/08/08 13:42:47;;;;;;;2.38;1.40;;;;;;;;;;5046101;28;20187;-51
2023/08/08 13:45:13;;;;;;;1.90;1.38;;;;;;;;;;5050615;28;20182;-50
2023/08/08 13:47:39;;;;;;;1.25;1.05;;;;;;;;;;5049138;28;20260;-51
2023/08/08 13:50:05;;;;;;;1.88;1.10;;;;;;;;;;5048445;28;20179;-51
2023/08/08 13:52:33;;;;;;;1.83;1.10;;;;;;;;;;5052447;28;20285;-51
2023/08/08 13:54:59;;;;;;;1.90;0.80;;;;;;;;;;5049492;28;20206;-50
2023/08/08 13:57:25;;;;;;;1.13;1.02;;;;;;;;;;5050839;28;20179;-51
2023/08/08 13:59:51;;;;;;;1.23;1.13;;;;;;;;;;5047244;28;20242;-50
2023/08/08 14:02:18;;;;;;;1.00;0.90;;;;;;;;;;5054052;28;20616;-51
2023/08/08 14:04:44;;;;;;;1.38;1.20;;;;;;;;;;5044931;28;20187;-50
2023/08/08 14:07:10;;;;;;;1.25;0.98;;;;;;;;;;5039811;28;20214;-50
2023/08/08 14:09:36;;;;;;;1.08;0.80;;;;;;;;;;5038155;28;20183;-51
2023/08/08 14:12:02;;;;;;;0.88;0.80;;;;;;;;;;5044586;28;20167;-51
2023/08/08 14:14:28;;;;;;;1.02;0.93;;;;;;;;;;5053062;28;20937;-50
2023/08/08 14:16:54;;;;;;;1.98;1.08;;;;;;;;;;5044893;28;20238;-51
2023/08/08 14:19:20;;;;;;;2.00;0.98;;;;;;;;;;5046613;28;20222;-50
2023/08/08 14:21:46;;;;;;;2.10;1.20;;;;;;;;;;5040972;28;20192;-51
2023/08/08 14:24:12;;;;;;;1.05;0.90;;;;;;;;;;5040046;28;20266;-51
2023/08/08 14:26:38;;;;;;;0.95;0.90;;;;;;;;;;5035627;28;20190;-51
2023/08/08 14:29:04;;;;;;;1.52;1.10;;;;;;;;;;5035620;28;20176;-51
2023/08/08 14:31:30;;;;;;;1.90;0.90;;;;;;;;;;5037133;28;20188;-50
2023/08/08 14:33:56;;;;;;;1.38;1.13;;;;;;;;;;5046207;28;20187;-50
2023/08/08 14:36:22;;;;;;;1.85;0.80;;;;;;;;;;5045483;28;20253;-50
2023/08/08 14:38:48;;;;;;;1.30;1.10;;;;;;;;;;5050257;28;20240;-51